createdAt,value
2024-05-09T00:01:00.066Z,8.94
2024-05-09T00:03:01.974Z,8.72
2024-05-09T00:05:03.845Z,8.42
2024-05-09T00:07:05.748Z,8.11
2024-05-09T00:09:07.566Z,7.97
2024-05-09T00:11:09.339Z,8.11
2024-05-09T00:13:11.480Z,7.71
2024-05-09T00:15:13.340Z,7.75
2024-05-09T00:17:15.174Z,7.64
2024-05-09T00:19:17.138Z,7.40
2024-05-09T00:21:18.964Z,7.38
2024-05-09T00:23:20.724Z,7.23
2024-05-09T00:25:22.436Z,7.19
2024-05-09T00:27:24.331Z,7.36
2024-05-09T00:29:26.307Z,7.33
2024-05-09T00:31:28.103Z,7.21
2024-05-09T00:33:30.143Z,7.36
2024-05-09T00:35:32.242Z,7.16
2024-05-09T00:37:34.060Z,7.24
2024-05-09T00:39:35.986Z,6.88
2024-05-09T00:41:37.756Z,7.07
2024-05-09T00:43:39.949Z,7.01
2024-05-09T00:45:42.366Z,6.98
2024-05-09T00:47:46.149Z,7.02
2024-05-09T00:49:48.117Z,6.98
2024-05-09T00:51:51.248Z,7.06
2024-05-09T00:53:53.267Z,7.06
2024-05-09T00:55:57.446Z,6.96
2024-05-09T00:57:59.308Z,6.85
2024-05-09T01:00:01.456Z,6.74
2024-05-09T01:02:03.451Z,6.89
2024-05-09T01:04:05.545Z,6.86
2024-05-09T01:06:07.351Z,6.72
2024-05-09T01:08:10.480Z,6.76
2024-05-09T01:10:17.417Z,6.71
2024-05-09T01:12:25.632Z,6.62
2024-05-09T01:14:27.451Z,6.65
2024-05-09T01:16:29.510Z,6.62
2024-05-09T01:18:31.367Z,6.55
2024-05-09T01:20:40.963Z,6.43
2024-05-09T01:22:45.633Z,6.64
2024-05-09T01:24:47.328Z,6.57
2024-05-09T01:26:49.105Z,6.69
2024-05-09T01:28:51.082Z,6.63
2024-05-09T01:30:52.813Z,6.72
2024-05-09T01:32:54.728Z,6.64
2024-05-09T01:34:56.655Z,6.40
2024-05-09T01:36:58.394Z,6.33
2024-05-09T01:39:00.128Z,6.09
2024-05-09T01:41:01.996Z,6.30
2024-05-09T01:43:03.913Z,6.36
2024-05-09T01:45:07.163Z,6.29
2024-05-09T01:47:09.562Z,6.18
2024-05-09T01:49:11.410Z,6.26
2024-05-09T01:51:13.328Z,6.19
2024-05-09T01:53:15.437Z,6.11
2024-05-09T01:55:17.295Z,5.96
2024-05-09T01:57:19.088Z,6.03
2024-05-09T01:59:21.100Z,5.96
2024-05-09T02:01:22.951Z,5.96
2024-05-09T02:03:24.914Z,5.91
2024-05-09T02:05:26.930Z,5.82
2024-05-09T02:07:28.700Z,5.90
2024-05-09T02:09:30.404Z,5.87
2024-05-09T02:11:32.755Z,5.72
2024-05-09T02:13:34.632Z,5.65
2024-05-09T02:15:36.600Z,5.63
2024-05-09T02:17:38.552Z,5.68
2024-05-09T02:19:40.499Z,5.61
2024-05-09T02:21:42.238Z,5.56
2024-05-09T02:23:44.015Z,5.56
2024-05-09T02:25:45.835Z,5.58
2024-05-09T02:27:47.564Z,5.54
2024-05-09T02:29:49.375Z,5.54
2024-05-09T02:31:51.284Z,5.40
2024-05-09T02:33:53.250Z,5.12
2024-05-09T02:35:55.101Z,5.12
2024-05-09T02:37:57.895Z,5.21
2024-05-09T02:39:59.688Z,5.08
2024-05-09T02:42:01.444Z,5.06
2024-05-09T02:44:03.241Z,5.18
2024-05-09T02:46:06.695Z,5.16
2024-05-09T02:48:13.296Z,5.02
2024-05-09T02:50:23.023Z,5.19
2024-05-09T02:52:28.492Z,5.21
2024-05-09T02:54:30.309Z,4.96
2024-05-09T02:56:32.045Z,5.22
2024-05-09T02:58:33.794Z,5.20
2024-05-09T03:00:39.797Z,5.20
2024-05-09T03:02:44.075Z,5.14
2024-05-09T03:04:45.997Z,5.15
2024-05-09T03:06:47.780Z,5.13
2024-05-09T03:08:49.491Z,5.09
2024-05-09T03:10:51.259Z,5.05
2024-05-09T03:12:53.072Z,4.87
2024-05-09T03:14:54.839Z,5.00
2024-05-09T03:16:56.608Z,4.98
2024-05-09T03:18:58.618Z,4.94
2024-05-09T03:21:00.431Z,4.99
2024-05-09T03:23:02.400Z,5.06
2024-05-09T03:25:04.546Z,5.07
2024-05-09T03:27:06.496Z,5.09
2024-05-09T03:29:08.274Z,5.08
2024-05-09T03:31:10.539Z,5.18
2024-05-09T03:33:16.189Z,5.21
2024-05-09T03:35:18.095Z,5.33
2024-05-09T03:37:19.822Z,5.35
2024-05-09T03:39:21.566Z,5.23
2024-05-09T03:41:23.359Z,5.39
2024-05-09T03:43:25.191Z,5.31
2024-05-09T03:45:26.914Z,5.36
2024-05-09T03:47:28.811Z,5.44
2024-05-09T03:49:30.937Z,5.49
2024-05-09T03:51:32.938Z,5.47
2024-05-09T03:53:34.780Z,5.63
2024-05-09T03:55:36.700Z,5.71
2024-05-09T03:57:38.400Z,5.85
2024-05-09T03:59:40.171Z,5.88
2024-05-09T04:01:42.042Z,6.00
2024-05-09T04:03:44.050Z,6.07
2024-05-09T04:05:46.195Z,6.17
2024-05-09T04:07:48.098Z,6.35
2024-05-09T04:09:49.819Z,6.43
2024-05-09T04:11:51.696Z,6.66
2024-05-09T04:13:53.492Z,6.84
2024-05-09T04:15:55.274Z,7.00
2024-05-09T04:17:57.264Z,7.13
2024-05-09T04:19:59.392Z,7.13
2024-05-09T04:22:01.126Z,7.29
2024-05-09T04:24:02.848Z,7.41
2024-05-09T04:26:04.998Z,7.55
2024-05-09T04:28:06.923Z,7.70
2024-05-09T04:30:15.315Z,8.16
2024-05-09T04:32:23.329Z,8.41
2024-05-09T04:34:25.320Z,8.47
2024-05-09T04:36:27.059Z,8.71
2024-05-09T04:38:29.028Z,8.84
2024-05-09T04:40:34.444Z,8.92
2024-05-09T04:42:40.865Z,9.24
2024-05-09T04:44:42.591Z,9.41
2024-05-09T04:46:44.353Z,9.65
2024-05-09T04:48:46.224Z,10.04
2024-05-09T04:50:48.102Z,10.31
2024-05-09T04:52:49.909Z,10.43
2024-05-09T04:54:52.675Z,11.22
2024-05-09T04:56:55.220Z,11.06
2024-05-09T04:58:56.973Z,11.23
2024-05-09T05:00:58.773Z,11.69
2024-05-09T05:03:00.670Z,11.89
2024-05-09T05:05:02.797Z,12.03
2024-05-09T05:07:04.846Z,12.17
2024-05-09T05:09:06.653Z,12.35
2024-05-09T05:11:08.470Z,12.52
2024-05-09T05:13:11.776Z,12.74
2024-05-09T05:15:13.757Z,12.72
2024-05-09T05:17:15.527Z,12.93
2024-05-09T05:19:17.836Z,12.64
2024-05-09T05:21:19.868Z,12.59
2024-05-09T05:23:23.255Z,12.46
2024-05-09T05:25:25.152Z,12.63
2024-05-09T05:27:26.845Z,12.70
2024-05-09T05:29:28.698Z,12.80
2024-05-09T05:31:30.506Z,12.79
2024-05-09T05:33:32.716Z,13.11
2024-05-09T05:35:34.948Z,13.40
2024-05-09T05:37:36.805Z,13.61
2024-05-09T05:39:38.696Z,13.96
2024-05-09T05:41:40.527Z,14.12
2024-05-09T05:43:42.296Z,13.87
2024-05-09T05:45:44.838Z,14.35
2024-05-09T05:47:46.811Z,14.95
2024-05-09T05:49:48.624Z,15.34
2024-05-09T05:51:50.465Z,15.90
2024-05-09T05:53:52.186Z,16.25
2024-05-09T05:55:53.917Z,16.20
2024-05-09T05:57:55.922Z,15.73
2024-05-09T05:59:57.654Z,15.54
2024-05-09T06:01:59.387Z,15.38
2024-05-09T06:04:01.445Z,15.73
2024-05-09T06:06:03.622Z,16.03
2024-05-09T06:08:05.977Z,15.33
2024-05-09T06:10:16.957Z,15.88
2024-05-09T06:12:23.086Z,16.03
2024-05-09T06:14:24.968Z,16.33
2024-05-09T06:16:26.888Z,16.36
2024-05-09T06:18:28.733Z,16.70
2024-05-09T06:20:35.958Z,17.18
2024-05-09T06:22:39.980Z,16.58
2024-05-09T06:24:41.710Z,16.62
2024-05-09T06:26:44.198Z,16.94
2024-05-09T06:28:46.201Z,16.80
2024-05-09T06:30:47.996Z,17.05
2024-05-09T06:32:49.844Z,17.38
2024-05-09T06:34:51.730Z,17.09
2024-05-09T06:36:53.457Z,17.22
2024-05-09T06:38:55.194Z,17.42
2024-05-09T06:40:57.187Z,17.99
2024-05-09T06:42:58.956Z,18.22
2024-05-09T06:45:00.711Z,19.09
2024-05-09T06:47:02.540Z,18.66
2024-05-09T06:49:04.644Z,19.43
2024-05-09T06:51:06.610Z,19.71
2024-05-09T06:53:08.756Z,20.39
2024-05-09T06:55:10.577Z,19.75
2024-05-09T06:57:12.323Z,20.05
2024-05-09T06:59:14.354Z,20.62
2024-05-09T07:01:16.162Z,20.12
2024-05-09T07:03:19.277Z,20.88
2024-05-09T07:05:21.531Z,20.62
2024-05-09T07:07:23.375Z,21.22
2024-05-09T07:09:25.115Z,20.88
2024-05-09T07:11:27.051Z,20.54
2024-05-09T07:13:28.847Z,20.85
2024-05-09T07:15:30.989Z,20.89
2024-05-09T07:17:32.976Z,21.07
2024-05-09T07:19:34.924Z,21.12
2024-05-09T07:21:36.780Z,21.50
2024-05-09T07:23:38.712Z,21.83
2024-05-09T07:25:41.668Z,21.95
2024-05-09T07:27:43.481Z,21.91
2024-05-09T07:29:45.215Z,22.05
2024-05-09T07:31:47.016Z,21.79
2024-05-09T07:33:48.985Z,22.22
2024-05-09T07:35:51.014Z,22.12
2024-05-09T07:37:52.759Z,21.86
2024-05-09T07:39:54.456Z,22.00
2024-05-09T07:41:56.177Z,21.41
2024-05-09T07:43:58.074Z,21.50
2024-05-09T07:46:28.311Z,21.08
2024-05-09T07:53:33.145Z,21.62
2024-05-09T07:54:55.802Z,21.11
2024-05-09T07:56:57.839Z,21.26
2024-05-09T07:58:59.616Z,20.62
2024-05-09T08:01:01.446Z,20.16
2024-05-09T08:03:03.308Z,20.70
2024-05-09T08:05:05.435Z,21.00
2024-05-09T08:07:07.425Z,21.45
2024-05-09T08:09:13.879Z,20.83
2024-05-09T08:11:21.127Z,21.25
2024-05-09T08:13:23.279Z,20.55
2024-05-09T08:15:25.040Z,20.26
2024-05-09T08:17:26.910Z,19.92
2024-05-09T08:19:28.689Z,18.87
2024-05-09T08:21:30.488Z,18.40
2024-05-09T08:23:32.259Z,18.00
2024-05-09T08:25:33.976Z,18.91
2024-05-09T08:27:35.754Z,19.33
2024-05-09T08:29:37.513Z,19.14
2024-05-09T08:31:39.416Z,19.03
2024-05-09T08:33:46.538Z,18.72
2024-05-09T08:35:48.453Z,18.46
2024-05-09T08:37:50.202Z,18.67
2024-05-09T08:39:52.257Z,18.65
2024-05-09T08:41:54.015Z,18.92
2024-05-09T08:43:55.758Z,19.18
2024-05-09T08:45:59.337Z,19.03
2024-05-09T08:48:02.484Z,19.12
2024-05-09T08:50:13.551Z,19.27
2024-05-09T08:52:18.209Z,19.44
2024-05-09T08:54:19.956Z,19.67
2024-05-09T08:56:26.667Z,19.14
2024-05-09T08:58:30.522Z,19.12
2024-05-09T09:00:36.978Z,19.02
2024-05-09T09:02:40.044Z,19.02
2024-05-09T09:04:48.210Z,17.90
2024-05-09T09:06:53.167Z,18.04
2024-05-09T09:08:55.876Z,18.02
2024-05-09T09:11:00.950Z,18.50
2024-05-09T09:13:03.453Z,18.65
2024-05-09T09:15:05.538Z,18.93
2024-05-09T09:17:14.816Z,19.19
2024-05-09T09:19:16.783Z,18.92
2024-05-09T09:21:18.741Z,19.35
2024-05-09T09:23:20.531Z,19.63
2024-05-09T09:25:23.010Z,19.82
2024-05-09T09:27:24.748Z,19.71
2024-05-09T09:29:26.788Z,19.80
2024-05-09T09:31:29.775Z,19.53
2024-05-09T09:33:32.068Z,19.82
2024-05-09T09:35:34.893Z,19.84
2024-05-09T09:37:38.146Z,19.97
2024-05-09T09:39:40.267Z,19.39
2024-05-09T09:41:46.530Z,19.39
2024-05-09T09:43:48.829Z,19.41
2024-05-09T09:45:53.033Z,19.79
2024-05-09T09:47:56.935Z,19.52
2024-05-09T09:49:59.756Z,19.29
2024-05-09T09:52:02.161Z,19.25
2024-05-09T09:54:05.949Z,18.79
2024-05-09T09:56:10.193Z,19.51
2024-05-09T09:58:14.700Z,19.10
2024-05-09T10:00:23.992Z,18.48
2024-05-09T10:02:29.525Z,18.55
2024-05-09T10:04:31.775Z,18.90
2024-05-09T10:06:39.013Z,19.02
2024-05-09T10:08:41.691Z,18.80
2024-05-09T10:10:47.042Z,18.81
2024-05-09T10:12:57.595Z,18.51
2024-05-09T10:14:59.444Z,18.68
2024-05-09T10:17:05.235Z,18.95
2024-05-09T10:19:07.110Z,18.15
2024-05-09T10:21:19.398Z,19.37
2024-05-09T10:23:23.941Z,19.56
2024-05-09T10:25:25.706Z,19.69
2024-05-09T10:27:28.943Z,20.07
2024-05-09T10:29:30.698Z,19.94
2024-05-09T10:31:32.554Z,19.82
2024-05-09T10:33:53.054Z,19.90
2024-05-09T10:35:55.101Z,20.19
2024-05-09T10:37:57.621Z,20.10
2024-05-09T10:40:00.556Z,19.88
2024-05-09T10:42:03.608Z,19.06
2024-05-09T10:44:15.736Z,18.89
2024-05-09T10:46:17.839Z,18.81
2024-05-09T10:48:19.729Z,18.66
2024-05-09T10:50:28.162Z,19.11
2024-05-09T10:52:31.074Z,19.24
2024-05-09T10:54:36.913Z,18.86
2024-05-09T10:56:38.685Z,19.38
2024-05-09T10:58:40.814Z,19.50
2024-05-09T11:00:42.604Z,19.29
2024-05-09T11:02:44.526Z,19.32
2024-05-09T11:04:46.587Z,19.54
2024-05-09T11:06:48.646Z,20.02
2024-05-09T11:08:50.921Z,20.32
2024-05-09T11:10:53.869Z,19.95
2024-05-09T11:12:55.754Z,20.18
2024-05-09T11:14:57.490Z,20.61
2024-05-09T11:17:07.538Z,20.58
2024-05-09T11:19:13.464Z,20.27
2024-05-09T11:21:15.303Z,20.71
2024-05-09T11:23:17.687Z,20.54
2024-05-09T11:25:19.589Z,19.77
2024-05-09T11:27:21.883Z,19.33
2024-05-09T11:29:36.059Z,18.94
2024-05-09T11:31:47.829Z,18.91
2024-05-09T11:33:49.750Z,18.86
2024-05-09T11:35:51.605Z,18.99
2024-05-09T11:37:53.425Z,19.31
2024-05-09T11:39:55.245Z,19.63
2024-05-09T11:41:57.804Z,19.95
2024-05-09T11:43:59.503Z,20.24
2024-05-09T11:46:01.395Z,20.68
2024-05-09T11:48:04.140Z,20.59
2024-05-09T11:50:08.077Z,20.11
2024-05-09T11:52:11.995Z,19.60
2024-05-09T11:54:15.752Z,20.07
2024-05-09T11:56:17.615Z,19.98
2024-05-09T11:58:20.630Z,20.50
2024-05-09T12:00:29.714Z,20.41
2024-05-09T12:02:38.285Z,20.38
2024-05-09T12:04:40.238Z,20.74
2024-05-09T12:06:42.225Z,20.17
2024-05-09T12:08:44.082Z,20.45
2024-05-09T12:10:46.258Z,20.54
2024-05-09T12:12:48.307Z,19.66
2024-05-09T12:14:50.039Z,19.93
2024-05-09T12:16:51.906Z,20.00
2024-05-09T12:18:53.895Z,19.98
2024-05-09T12:20:55.852Z,20.10
2024-05-09T12:22:57.564Z,19.88
2024-05-09T12:24:59.328Z,20.44
2024-05-09T12:27:01.123Z,20.67
2024-05-09T12:29:02.879Z,20.12
2024-05-09T12:31:04.969Z,19.95
2024-05-09T12:33:08.607Z,20.05
2024-05-09T12:35:10.790Z,20.00
2024-05-09T12:37:12.705Z,20.37
2024-05-09T12:39:14.614Z,20.33
2024-05-09T12:41:16.320Z,20.51
2024-05-09T12:43:18.385Z,20.79
2024-05-09T12:45:20.153Z,20.78
2024-05-09T12:47:22.100Z,20.67
2024-05-09T12:49:24.174Z,20.66
2024-05-09T12:51:26.214Z,20.88
2024-05-09T12:53:27.959Z,20.17
2024-05-09T12:55:34.028Z,20.10
2024-05-09T12:57:42.500Z,19.86
2024-05-09T12:59:44.345Z,20.54
2024-05-09T13:01:46.404Z,20.56
2024-05-09T13:03:48.356Z,20.18
2024-05-09T13:05:51.419Z,20.29
2024-05-09T13:07:53.552Z,20.54
2024-05-09T13:09:55.318Z,19.95
2024-05-09T13:11:57.103Z,19.99
2024-05-09T13:13:59.105Z,20.20
2024-05-09T13:16:00.972Z,20.18
2024-05-09T13:18:04.080Z,20.51
2024-05-09T13:20:09.290Z,20.61
2024-05-09T13:22:13.734Z,20.61
2024-05-09T13:24:15.573Z,20.50
2024-05-09T13:26:17.423Z,20.83
2024-05-09T13:28:19.351Z,20.88
2024-05-09T13:30:29.262Z,21.04
2024-05-09T13:32:39.740Z,20.84
2024-05-09T13:34:41.585Z,20.53
2024-05-09T13:36:43.461Z,20.16
2024-05-09T13:38:45.540Z,20.21
2024-05-09T13:40:47.818Z,20.21
2024-05-09T13:42:49.934Z,20.53
2024-05-09T13:44:51.666Z,20.59
2024-05-09T13:46:53.674Z,20.73
2024-05-09T13:48:55.583Z,20.88
2024-05-09T13:50:57.531Z,20.49
2024-05-09T13:52:59.252Z,20.54
2024-05-09T13:55:00.989Z,20.98
2024-05-09T13:57:02.892Z,21.02
2024-05-09T13:59:04.926Z,20.88
2024-05-09T14:01:06.729Z,20.92
2024-05-09T14:03:08.643Z,21.11
2024-05-09T14:05:10.817Z,21.22
2024-05-09T14:07:12.964Z,21.40
2024-05-09T14:09:15.128Z,21.39
2024-05-09T14:11:16.890Z,21.13
2024-05-09T14:13:19.770Z,21.23
2024-05-09T14:15:21.746Z,21.49
2024-05-09T14:17:23.660Z,21.60
2024-05-09T14:19:25.462Z,21.39
2024-05-09T14:21:27.206Z,20.95
2024-05-09T14:23:29.130Z,21.05
2024-05-09T14:25:31.266Z,21.01
2024-05-09T14:27:33.070Z,21.24
2024-05-09T14:29:35.093Z,21.02
2024-05-09T14:31:39.677Z,20.68
2024-05-09T14:33:41.760Z,20.57
2024-05-09T14:35:43.696Z,20.63
2024-05-09T14:37:45.471Z,20.50
2024-05-09T14:39:47.239Z,20.73
2024-05-09T14:41:48.992Z,20.95
2024-05-09T14:43:50.693Z,21.36
2024-05-09T14:45:52.594Z,21.05
2024-05-09T14:47:54.587Z,20.50
2024-05-09T14:49:56.441Z,20.27
2024-05-09T14:51:58.390Z,20.38
2024-05-09T14:54:00.228Z,20.43
2024-05-09T14:56:02.010Z,20.39
2024-05-09T14:58:03.970Z,20.35
2024-05-09T15:00:09.124Z,20.38
2024-05-09T15:02:16.050Z,20.55
2024-05-09T15:04:17.990Z,20.58
2024-05-09T15:06:19.951Z,20.44
2024-05-09T15:08:21.804Z,20.30
2024-05-09T15:10:31.169Z,20.15
2024-05-09T15:12:36.649Z,19.85
2024-05-09T15:14:38.380Z,20.21
2024-05-09T15:16:40.116Z,20.35
2024-05-09T15:18:43.908Z,20.74
2024-05-09T15:20:46.118Z,21.11
2024-05-09T15:22:47.970Z,21.18
2024-05-09T15:24:49.820Z,21.28
2024-05-09T15:26:51.579Z,21.17
2024-05-09T15:28:53.291Z,21.19
2024-05-09T15:30:55.017Z,21.07
2024-05-09T15:32:56.828Z,21.01
2024-05-09T15:34:58.625Z,20.71
2024-05-09T15:37:01.308Z,21.05
2024-05-09T15:39:03.275Z,20.79
2024-05-09T15:41:05.547Z,20.89
2024-05-09T15:43:08.511Z,20.96
2024-05-09T15:45:11.367Z,20.74
2024-05-09T15:47:13.078Z,20.84
2024-05-09T15:49:14.966Z,20.75
2024-05-09T15:51:16.812Z,20.11
2024-05-09T15:53:18.543Z,20.24
2024-05-09T15:55:20.440Z,20.48
2024-05-09T15:57:22.462Z,20.31
2024-05-09T15:59:24.315Z,20.40
2024-05-09T16:01:26.155Z,20.49
2024-05-09T16:03:28.119Z,20.24
2024-05-09T16:05:29.998Z,20.14
2024-05-09T16:07:31.938Z,20.28
2024-05-09T16:09:33.696Z,20.07
2024-05-09T16:11:35.511Z,20.00
2024-05-09T16:13:37.265Z,20.34
2024-05-09T16:15:39.076Z,20.36
2024-05-09T16:17:40.968Z,20.45
2024-05-09T16:19:42.756Z,20.57
2024-05-09T16:21:44.519Z,20.03
2024-05-09T16:23:46.253Z,19.94
2024-05-09T16:25:48.539Z,19.90
2024-05-09T16:27:51.477Z,19.99
2024-05-09T16:29:53.211Z,19.83
2024-05-09T16:31:54.996Z,19.82
2024-05-09T16:33:56.980Z,19.93
2024-05-09T16:35:58.897Z,20.20
2024-05-09T16:38:04.108Z,19.98
2024-05-09T16:40:09.929Z,20.09
2024-05-09T16:42:17.006Z,19.62
2024-05-09T16:44:18.840Z,19.70
2024-05-09T16:46:20.948Z,19.71
2024-05-09T16:48:23.135Z,19.79
2024-05-09T16:50:29.536Z,19.71
2024-05-09T16:52:34.695Z,19.79
2024-05-09T16:54:36.609Z,19.62
2024-05-09T16:56:38.413Z,19.62
2024-05-09T16:58:40.492Z,19.70
2024-05-09T17:00:43.903Z,19.66
2024-05-09T17:02:46.306Z,19.74
2024-05-09T17:04:48.194Z,19.84
2024-05-09T17:06:50.027Z,19.66
2024-05-09T17:08:52.308Z,19.50
2024-05-09T17:10:54.946Z,19.88
2024-05-09T17:12:56.853Z,19.76
2024-05-09T17:14:58.585Z,19.73
2024-05-09T17:17:00.581Z,19.70
2024-05-09T17:19:02.538Z,19.52
2024-05-09T17:21:04.433Z,19.68
2024-05-09T17:23:06.580Z,19.63
2024-05-09T17:25:08.590Z,19.53
2024-05-09T17:27:10.644Z,19.32
2024-05-09T17:29:12.639Z,19.41
2024-05-09T17:31:14.520Z,19.44
2024-05-09T17:33:16.444Z,19.54
2024-05-09T17:35:18.242Z,19.45
2024-05-09T17:37:20.435Z,19.51
2024-05-09T17:39:22.248Z,19.48
2024-05-09T17:41:23.967Z,19.45
2024-05-09T17:43:25.967Z,19.38
2024-05-09T17:45:27.743Z,19.10
2024-05-09T17:47:29.631Z,19.06
2024-05-09T17:49:31.557Z,19.04
2024-05-09T17:51:33.614Z,18.93
2024-05-09T17:53:35.358Z,18.82
2024-05-09T17:55:37.394Z,18.56
2024-05-09T17:57:39.249Z,18.46
2024-05-09T17:59:40.982Z,18.38
2024-05-09T18:01:42.964Z,18.20
2024-05-09T18:03:44.960Z,18.02
2024-05-09T18:05:46.961Z,17.93
2024-05-09T18:07:48.992Z,17.69
2024-05-09T18:09:50.767Z,17.57
2024-05-09T18:11:52.531Z,17.40
2024-05-09T18:13:54.330Z,17.25
2024-05-09T18:15:56.149Z,17.04
2024-05-09T18:17:58.418Z,16.91
2024-05-09T18:20:00.490Z,16.74
2024-05-09T18:22:02.352Z,16.50
2024-05-09T18:24:04.220Z,16.37
2024-05-09T18:26:06.203Z,16.24
2024-05-09T18:28:08.589Z,16.14
2024-05-09T18:30:17.322Z,16.07
2024-05-09T18:32:25.491Z,15.88
2024-05-09T18:34:27.336Z,15.74
2024-05-09T18:36:29.177Z,15.69
2024-05-09T18:38:31.017Z,15.56
2024-05-09T18:40:36.178Z,15.44
2024-05-09T18:42:40.146Z,15.21
2024-05-09T18:44:42.165Z,15.19
2024-05-09T18:46:43.899Z,15.17
2024-05-09T18:48:45.712Z,15.07
2024-05-09T18:50:49.078Z,15.03
2024-05-09T18:52:51.064Z,14.92
2024-05-09T18:54:52.820Z,14.82
2024-05-09T18:56:54.798Z,14.66
2024-05-09T18:58:56.505Z,14.44
2024-05-09T19:01:00.828Z,14.25
2024-05-09T19:03:03.875Z,14.18
2024-05-09T19:05:05.878Z,14.19
2024-05-09T19:07:07.701Z,14.15
2024-05-09T19:09:09.530Z,13.99
2024-05-09T19:11:11.403Z,13.99
2024-05-09T19:13:14.373Z,13.98
2024-05-09T19:15:16.936Z,13.92
2024-05-09T19:17:18.706Z,13.79
2024-05-09T19:19:20.565Z,13.58
2024-05-09T19:21:22.727Z,13.67
2024-05-09T19:23:24.456Z,13.33
2024-05-09T19:25:26.224Z,13.56
2024-05-09T19:27:28.228Z,13.15
2024-05-09T19:29:30.382Z,13.37
2024-05-09T19:31:32.132Z,13.46
2024-05-09T19:33:34.075Z,13.34
2024-05-09T19:35:35.877Z,13.20
2024-05-09T19:37:37.750Z,13.18
2024-05-09T19:39:39.510Z,12.96
2024-05-09T19:41:41.468Z,12.76
2024-05-09T19:43:43.663Z,12.87
2024-05-09T19:45:45.726Z,12.69
2024-05-09T19:47:47.667Z,12.77
2024-05-09T19:49:49.432Z,12.65
2024-05-09T19:51:51.311Z,12.71
2024-05-09T19:53:53.070Z,12.85
2024-05-09T19:55:55.045Z,12.40
2024-05-09T19:57:57.239Z,12.53
2024-05-09T19:59:59.555Z,12.53
2024-05-09T20:02:01.474Z,12.49
2024-05-09T20:04:03.710Z,12.43
2024-05-09T20:06:05.714Z,12.41
2024-05-09T20:08:07.873Z,12.34
2024-05-09T20:10:16.628Z,12.23
2024-05-09T20:14:26.797Z,12.18
2024-05-09T20:16:28.506Z,12.20
2024-05-09T20:18:30.363Z,12.17
2024-05-09T20:20:37.778Z,12.26
2024-05-09T20:22:43.240Z,11.72
2024-05-09T20:24:45.070Z,11.47
2024-05-09T20:26:46.795Z,11.75
2024-05-09T20:28:48.508Z,11.66
2024-05-09T20:30:50.483Z,11.64
2024-05-09T20:32:52.389Z,11.69
2024-05-09T20:34:54.127Z,11.47
2024-05-09T20:36:55.906Z,11.51
2024-05-09T20:38:57.636Z,11.54
2024-05-09T20:40:59.446Z,11.44
2024-05-09T20:43:01.256Z,11.42
2024-05-09T20:45:03.061Z,11.42
2024-05-09T20:47:04.781Z,11.41
2024-05-09T20:49:06.565Z,11.49
2024-05-09T20:51:09.929Z,11.39
2024-05-09T20:53:13.855Z,11.26
2024-05-09T20:55:16.711Z,11.10
2024-05-09T20:57:18.535Z,11.05
2024-05-09T20:59:20.388Z,10.87
2024-05-09T21:01:22.130Z,11.13
2024-05-09T21:03:25.262Z,11.16
2024-05-09T21:05:27.197Z,11.02
2024-05-09T21:07:29.059Z,10.89
2024-05-09T21:09:30.769Z,10.97
2024-05-09T21:11:32.564Z,10.82
2024-05-09T21:13:34.424Z,10.84
2024-05-09T21:15:36.527Z,10.88
2024-05-09T21:17:38.432Z,10.79
2024-05-09T21:19:40.201Z,10.63
2024-05-09T21:21:42.575Z,10.81
2024-05-09T21:23:44.364Z,10.88
2024-05-09T21:25:46.091Z,10.61
2024-05-09T21:27:47.821Z,10.59
2024-05-09T21:29:49.603Z,10.55
2024-05-09T21:31:51.310Z,10.48
2024-05-09T21:33:53.117Z,10.42
2024-05-09T21:35:55.071Z,10.57
2024-05-09T21:37:56.842Z,10.56
2024-05-09T21:39:58.688Z,10.53
2024-05-09T21:42:00.682Z,10.26
2024-05-09T21:44:02.409Z,10.41
2024-05-09T21:46:05.000Z,10.26
2024-05-09T21:48:07.566Z,10.33
2024-05-09T21:50:12.563Z,10.22
2024-05-09T21:52:20.092Z,10.17
2024-05-09T21:54:21.827Z,10.16
2024-05-09T21:56:23.662Z,10.10
2024-05-09T21:58:25.610Z,9.68
2024-05-09T22:00:35.817Z,10.02
2024-05-09T22:02:43.309Z,9.87
2024-05-09T22:04:45.113Z,9.88
2024-05-09T22:06:46.951Z,9.83
2024-05-09T22:08:48.687Z,9.84
2024-05-09T22:10:50.704Z,9.68
2024-05-09T22:12:52.566Z,9.77
2024-05-09T22:14:54.309Z,9.66
2024-05-09T22:16:56.036Z,9.58
2024-05-09T22:18:58.097Z,9.53
2024-05-09T22:20:59.894Z,9.39
2024-05-09T22:23:01.606Z,9.42
2024-05-09T22:25:03.638Z,9.37
2024-05-09T22:27:05.482Z,9.26
2024-05-09T22:29:07.200Z,9.33
2024-05-09T22:31:09.449Z,9.33
2024-05-09T22:33:12.330Z,9.12
2024-05-09T22:35:14.548Z,9.22
2024-05-09T22:37:16.772Z,9.26
2024-05-09T22:39:18.657Z,9.16
2024-05-09T22:41:20.375Z,8.98
2024-05-09T22:43:24.260Z,9.19
2024-05-09T22:45:27.010Z,9.28
2024-05-09T22:47:28.777Z,9.23
2024-05-09T22:49:30.688Z,9.09
2024-05-09T22:51:33.243Z,9.11
2024-05-09T22:53:35.201Z,9.10
2024-05-09T22:55:36.997Z,9.14
2024-05-09T22:57:38.804Z,9.12
2024-05-09T22:59:40.652Z,9.20
2024-05-09T23:01:42.446Z,9.16
2024-05-09T23:03:44.276Z,9.02
2024-05-09T23:05:46.092Z,8.94
2024-05-09T23:07:47.835Z,8.90
2024-05-09T23:09:49.605Z,9.01
2024-05-09T23:11:51.555Z,8.91
2024-05-09T23:13:53.393Z,8.99
2024-05-09T23:15:55.185Z,9.05
2024-05-09T23:17:57.331Z,8.91
2024-05-09T23:19:59.518Z,9.07
2024-05-09T23:22:01.531Z,8.92
2024-05-09T23:24:03.433Z,8.76
2024-05-09T23:26:05.283Z,8.93
2024-05-09T23:28:07.512Z,8.90
2024-05-09T23:30:12.448Z,8.97
2024-05-09T23:32:17.021Z,9.00
2024-05-09T23:34:18.918Z,9.02
2024-05-09T23:36:20.847Z,8.99
2024-05-09T23:38:23.958Z,8.86
2024-05-09T23:40:36.890Z,8.89
2024-05-09T23:42:41.665Z,8.86
2024-05-09T23:44:43.403Z,8.81
2024-05-09T23:46:45.285Z,8.82
2024-05-09T23:48:47.218Z,8.72
2024-05-09T23:50:48.957Z,8.79
2024-05-09T23:52:50.827Z,8.82
2024-05-09T23:54:52.578Z,8.83
2024-05-09T23:56:54.370Z,8.88
2024-05-09T23:58:56.230Z,8.72
